sensor_id;sensor_type;location;lat;lon;timestamp;temperature;humidity
6662;DHT22;3367;48.714;8.994;2022-11-20T00:00:40;4.30;1.00
6662;DHT22;3367;48.714;8.994;2022-11-20T00:03:06;4.30;1.00
6662;DHT22;3367;48.714;8.994;2022-11-20T00:05:33;4.30;1.00
6662;DHT22;3367;48.714;8.994;2022-11-20T00:08:00;4.30;1.00
6662;DHT22;3367;48.714;8.994;2022-11-20T00:10:27;4.30;1.00
6662;DHT22;3367;48.714;8.994;2022-11-20T00:12:53;4.30;1.00
6662;DHT22;3367;48.714;8.994;2022-11-20T00:15:20;4.30;1.00
6662;DHT22;3367;48.714;8.994;2022-11-20T00:17:48;4.20;1.00
6662;DHT22;3367;48.714;8.994;2022-11-20T00:20:15;4.20;98.00
6662;DHT22;3367;48.714;8.994;2022-11-20T00:22:42;4.20;89.40
6662;DHT22;3367;48.714;8.994;2022-11-20T00:25:09;4.30;99.90
6662;DHT22;3367;48.714;8.994;2022-11-20T00:27:37;4.30;96.70
6662;DHT22;3367;48.714;8.994;2022-11-20T00:30:04;4.30;16.70
6662;DHT22;3367;48.714;8.994;2022-11-20T00:32:31;4.30;34.00
6662;DHT22;3367;48.714;8.994;2022-11-20T00:34:59;4.30;1.00
6662;DHT22;3367;48.714;8.994;2022-11-20T00:37:26;4.40;99.90
6662;DHT22;3367;48.714;8.994;2022-11-20T00:39:53;4.40;1.00
6662;DHT22;3367;48.714;8.994;2022-11-20T00:42:20;4.40;1.00
6662;DHT22;3367;48.714;8.994;2022-11-20T00:44:47;4.40;1.00
6662;DHT22;3367;48.714;8.994;2022-11-20T00:47:13;4.40;1.00
6662;DHT22;3367;48.714;8.994;2022-11-20T00:49:40;4.30;1.00
6662;DHT22;3367;48.714;8.994;2022-11-20T00:52:08;4.40;1.00
6662;DHT22;3367;48.714;8.994;2022-11-20T00:54:35;4.40;1.00
6662;DHT22;3367;48.714;8.994;2022-11-20T00:57:02;4.30;1.00
6662;DHT22;3367;48.714;8.994;2022-11-20T00:59:28;4.20;1.00
6662;DHT22;3367;48.714;8.994;2022-11-20T01:01:55;4.10;1.00
6662;DHT22;3367;48.714;8.994;2022-11-20T01:04:22;4.10;1.00
6662;DHT22;3367;48.714;8.994;2022-11-20T01:06:49;4.00;1.00
6662;DHT22;3367;48.714;8.994;2022-11-20T01:09:17;4.00;1.00
6662;DHT22;3367;48.714;8.994;2022-11-20T01:11:44;4.00;1.00
6662;DHT22;3367;48.714;8.994;2022-11-20T01:14:14;3.90;1.00
6662;DHT22;3367;48.714;8.994;2022-11-20T01:16:43;3.90;1.00
6662;DHT22;3367;48.714;8.994;2022-11-20T01:19:14;3.90;1.00
6662;DHT22;3367;48.714;8.994;2022-11-20T01:21:42;3.80;1.00
6662;DHT22;3367;48.714;8.994;2022-11-20T01:24:12;3.70;1.00
6662;DHT22;3367;48.714;8.994;2022-11-20T01:26:41;3.60;13.00
6662;DHT22;3367;48.714;8.994;2022-11-20T01:29:10;3.50;99.90
6662;DHT22;3367;48.714;8.994;2022-11-20T01:31:39;3.50;99.90
6662;DHT22;3367;48.714;8.994;2022-11-20T01:34:08;3.50;1.00
6662;DHT22;3367;48.714;8.994;2022-11-20T01:36:36;3.30;1.00
6662;DHT22;3367;48.714;8.994;2022-11-20T01:39:05;3.20;1.00
6662;DHT22;3367;48.714;8.994;2022-11-20T01:41:33;3.20;1.00
6662;DHT22;3367;48.714;8.994;2022-11-20T01:44:21;3.30;21.50
6662;DHT22;3367;48.714;8.994;2022-11-20T01:46:54;3.30;1.00
6662;DHT22;3367;48.714;8.994;2022-11-20T01:49:25;3.20;1.00
6662;DHT22;3367;48.714;8.994;2022-11-20T01:51:55;3.20;1.00
6662;DHT22;3367;48.714;8.994;2022-11-20T01:54:27;3.10;1.00
6662;DHT22;3367;48.714;8.994;2022-11-20T01:56:57;3.20;99.90
6662;DHT22;3367;48.714;8.994;2022-11-20T01:59:26;3.30;99.90
6662;DHT22;3367;48.714;8.994;2022-11-20T02:01:54;3.30;99.90
6662;DHT22;3367;48.714;8.994;2022-11-20T02:04:22;3.40;99.90
6662;DHT22;3367;48.714;8.994;2022-11-20T02:06:51;3.30;1.00
6662;DHT22;3367;48.714;8.994;2022-11-20T02:09:20;3.30;1.00
6662;DHT22;3367;48.714;8.994;2022-11-20T02:11:46;3.40;1.00
6662;DHT22;3367;48.714;8.994;2022-11-20T02:14:14;3.40;1.00
6662;DHT22;3367;48.714;8.994;2022-11-20T02:16:46;3.40;1.00
6662;DHT22;3367;48.714;8.994;2022-11-20T02:19:20;3.40;1.00
6662;DHT22;3367;48.714;8.994;2022-11-20T02:21:54;3.40;1.00
6662;DHT22;3367;48.714;8.994;2022-11-20T02:24:24;3.40;1.00
6662;DHT22;3367;48.714;8.994;2022-11-20T02:26:53;3.50;1.00
6662;DHT22;3367;48.714;8.994;2022-11-20T02:29:26;3.50;1.00
6662;DHT22;3367;48.714;8.994;2022-11-20T02:31:53;3.50;1.00
6662;DHT22;3367;48.714;8.994;2022-11-20T02:34:21;3.50;1.00
6662;DHT22;3367;48.714;8.994;2022-11-20T02:36:48;3.60;1.00
6662;DHT22;3367;48.714;8.994;2022-11-20T02:39:16;3.70;1.00
6662;DHT22;3367;48.714;8.994;2022-11-20T02:41:44;3.70;1.00
6662;DHT22;3367;48.714;8.994;2022-11-20T02:44:11;3.70;99.90
6662;DHT22;3367;48.714;8.994;2022-11-20T02:46:38;3.80;1.00
6662;DHT22;3367;48.714;8.994;2022-11-20T02:49:05;3.80;99.90
6662;DHT22;3367;48.714;8.994;2022-11-20T02:51:32;3.80;99.90
6662;DHT22;3367;48.714;8.994;2022-11-20T02:53:59;3.80;99.90
6662;DHT22;3367;48.714;8.994;2022-11-20T02:56:26;3.80;99.90
6662;DHT22;3367;48.714;8.994;2022-11-20T02:58:54;3.80;99.90
6662;DHT22;3367;48.714;8.994;2022-11-20T03:01:21;3.70;99.90
6662;DHT22;3367;48.714;8.994;2022-11-20T03:03:48;3.70;99.90
6662;DHT22;3367;48.714;8.994;2022-11-20T03:06:15;3.70;1.00
6662;DHT22;3367;48.714;8.994;2022-11-20T03:08:42;3.70;1.00
6662;DHT22;3367;48.714;8.994;2022-11-20T03:11:09;3.70;1.00
6662;DHT22;3367;48.714;8.994;2022-11-20T03:13:36;3.70;1.00
6662;DHT22;3367;48.714;8.994;2022-11-20T03:16:09;3.70;99.90
6662;DHT22;3367;48.714;8.994;2022-11-20T03:18:37;3.60;99.90
6662;DHT22;3367;48.714;8.994;2022-11-20T03:21:04;3.60;1.00
6662;DHT22;3367;48.714;8.994;2022-11-20T03:23:32;3.60;1.00
6662;DHT22;3367;48.714;8.994;2022-11-20T03:26:10;3.60;1.00
6662;DHT22;3367;48.714;8.994;2022-11-20T03:28:37;3.60;1.00
6662;DHT22;3367;48.714;8.994;2022-11-20T03:31:11;3.50;1.00
6662;DHT22;3367;48.714;8.994;2022-11-20T03:33:39;3.50;1.00
6662;DHT22;3367;48.714;8.994;2022-11-20T03:36:07;3.40;1.00
6662;DHT22;3367;48.714;8.994;2022-11-20T03:38:35;3.30;1.00
6662;DHT22;3367;48.714;8.994;2022-11-20T03:41:04;3.30;1.00
6662;DHT22;3367;48.714;8.994;2022-11-20T03:43:31;3.30;1.00
6662;DHT22;3367;48.714;8.994;2022-11-20T03:45:58;3.20;1.00
6662;DHT22;3367;48.714;8.994;2022-11-20T03:48:26;3.10;1.00
6662;DHT22;3367;48.714;8.994;2022-11-20T03:51:06;3.10;31.50
6662;DHT22;3367;48.714;8.994;2022-11-20T03:53:33;3.10;99.90
6662;DHT22;3367;48.714;8.994;2022-11-20T03:56:00;3.10;99.90
6662;DHT22;3367;48.714;8.994;2022-11-20T03:58:26;3.10;99.90
6662;DHT22;3367;48.714;8.994;2022-11-20T04:00:53;3.10;99.90
6662;DHT22;3367;48.714;8.994;2022-11-20T04:03:20;3.20;1.00
6662;DHT22;3367;48.714;8.994;2022-11-20T04:05:48;3.20;1.00
6662;DHT22;3367;48.714;8.994;2022-11-20T04:08:15;3.20;99.90
6662;DHT22;3367;48.714;8.994;2022-11-20T04:10:41;3.20;99.90
6662;DHT22;3367;48.714;8.994;2022-11-20T04:13:08;3.20;99.90
6662;DHT22;3367;48.714;8.994;2022-11-20T04:15:35;3.20;1.00
6662;DHT22;3367;48.714;8.994;2022-11-20T04:18:02;3.30;1.00
6662;DHT22;3367;48.714;8.994;2022-11-20T04:20:29;3.30;1.00
6662;DHT22;3367;48.714;8.994;2022-11-20T04:22:57;3.40;1.00
6662;DHT22;3367;48.714;8.994;2022-11-20T04:25:23;3.40;99.90
6662;DHT22;3367;48.714;8.994;2022-11-20T04:27:50;3.50;99.90
6662;DHT22;3367;48.714;8.994;2022-11-20T04:30:17;3.50;99.90
6662;DHT22;3367;48.714;8.994;2022-11-20T04:32:44;3.60;99.90
6662;DHT22;3367;48.714;8.994;2022-11-20T04:35:11;3.60;91.30
6662;DHT22;3367;48.714;8.994;2022-11-20T04:37:37;3.60;16.40
6662;DHT22;3367;48.714;8.994;2022-11-20T04:40:06;3.70;1.00
6662;DHT22;3367;48.714;8.994;2022-11-20T04:42:33;3.70;1.00
6662;DHT22;3367;48.714;8.994;2022-11-20T04:45:00;3.70;1.00
6662;DHT22;3367;48.714;8.994;2022-11-20T04:47:27;3.70;1.00
6662;DHT22;3367;48.714;8.994;2022-11-20T04:49:53;3.70;1.00
6662;DHT22;3367;48.714;8.994;2022-11-20T04:52:20;3.80;1.00
6662;DHT22;3367;48.714;8.994;2022-11-20T04:54:47;3.80;99.90
6662;DHT22;3367;48.714;8.994;2022-11-20T04:57:15;3.80;99.90
6662;DHT22;3367;48.714;8.994;2022-11-20T04:59:42;3.90;99.90
6662;DHT22;3367;48.714;8.994;2022-11-20T05:02:09;3.90;99.90
6662;DHT22;3367;48.714;8.994;2022-11-20T05:04:36;3.90;99.90
6662;DHT22;3367;48.714;8.994;2022-11-20T05:07:03;4.00;99.90
6662;DHT22;3367;48.714;8.994;2022-11-20T05:09:30;4.10;93.60
6662;DHT22;3367;48.714;8.994;2022-11-20T05:11:57;4.10;19.60
6662;DHT22;3367;48.714;8.994;2022-11-20T05:14:26;4.20;1.00
6662;DHT22;3367;48.714;8.994;2022-11-20T05:16:53;4.20;1.00
6662;DHT22;3367;48.714;8.994;2022-11-20T05:19:20;4.30;1.00
6662;DHT22;3367;48.714;8.994;2022-11-20T05:21:46;4.30;99.90
6662;DHT22;3367;48.714;8.994;2022-11-20T05:24:13;4.30;99.90
6662;DHT22;3367;48.714;8.994;2022-11-20T05:26:40;4.30;67.20
6662;DHT22;3367;48.714;8.994;2022-11-20T05:29:09;4.40;1.00
6662;DHT22;3367;48.714;8.994;2022-11-20T05:31:39;4.40;1.00
6662;DHT22;3367;48.714;8.994;2022-11-20T05:34:06;4.40;1.00
6662;DHT22;3367;48.714;8.994;2022-11-20T05:36:33;4.40;1.00
6662;DHT22;3367;48.714;8.994;2022-11-20T05:38:59;4.40;1.00
6662;DHT22;3367;48.714;8.994;2022-11-20T05:41:26;4.30;1.00
6662;DHT22;3367;48.714;8.994;2022-11-20T05:43:53;4.30;1.00
6662;DHT22;3367;48.714;8.994;2022-11-20T05:46:20;4.30;1.00
6662;DHT22;3367;48.714;8.994;2022-11-20T05:48:49;4.30;1.00
6662;DHT22;3367;48.714;8.994;2022-11-20T05:51:18;4.30;1.00
6662;DHT22;3367;48.714;8.994;2022-11-20T05:53:45;4.30;1.00
6662;DHT22;3367;48.714;8.994;2022-11-20T05:56:14;4.40;1.00
6662;DHT22;3367;48.714;8.994;2022-11-20T05:58:41;4.30;1.00
6662;DHT22;3367;48.714;8.994;2022-11-20T06:01:10;4.30;1.00
6662;DHT22;3367;48.714;8.994;2022-11-20T06:03:38;4.30;1.00
6662;DHT22;3367;48.714;8.994;2022-11-20T06:06:06;4.30;1.00
6662;DHT22;3367;48.714;8.994;2022-11-20T06:08:33;4.30;1.00
6662;DHT22;3367;48.714;8.994;2022-11-20T06:11:04;4.30;1.00
6662;DHT22;3367;48.714;8.994;2022-11-20T06:13:31;4.40;1.00
6662;DHT22;3367;48.714;8.994;2022-11-20T06:15:58;4.40;1.00
6662;DHT22;3367;48.714;8.994;2022-11-20T06:18:26;4.40;1.00
6662;DHT22;3367;48.714;8.994;2022-11-20T06:21:00;4.40;1.00
6662;DHT22;3367;48.714;8.994;2022-11-20T06:23:29;4.50;1.00
6662;DHT22;3367;48.714;8.994;2022-11-20T06:25:57;4.50;1.00
6662;DHT22;3367;48.714;8.994;2022-11-20T06:28:24;4.50;1.00
6662;DHT22;3367;48.714;8.994;2022-11-20T06:30:51;4.50;1.00
6662;DHT22;3367;48.714;8.994;2022-11-20T06:33:17;4.50;1.00
6662;DHT22;3367;48.714;8.994;2022-11-20T06:35:44;4.60;99.90
6662;DHT22;3367;48.714;8.994;2022-11-20T06:38:11;4.60;99.90
6662;DHT22;3367;48.714;8.994;2022-11-20T06:40:41;4.60;99.90
6662;DHT22;3367;48.714;8.994;2022-11-20T06:43:08;4.60;99.90
6662;DHT22;3367;48.714;8.994;2022-11-20T06:45:35;4.60;92.20
6662;DHT22;3367;48.714;8.994;2022-11-20T06:48:02;4.70;1.00
6662;DHT22;3367;48.714;8.994;2022-11-20T06:50:29;4.60;1.00
6662;DHT22;3367;48.714;8.994;2022-11-20T06:52:56;4.60;1.00
6662;DHT22;3367;48.714;8.994;2022-11-20T06:55:23;4.60;1.00
6662;DHT22;3367;48.714;8.994;2022-11-20T06:57:51;4.60;1.00
6662;DHT22;3367;48.714;8.994;2022-11-20T07:00:18;4.60;1.00
6662;DHT22;3367;48.714;8.994;2022-11-20T07:02:45;4.60;1.00
6662;DHT22;3367;48.714;8.994;2022-11-20T07:05:12;4.60;56.70
6662;DHT22;3367;48.714;8.994;2022-11-20T07:07:38;4.60;95.00
6662;DHT22;3367;48.714;8.994;2022-11-20T07:10:06;4.60;29.30
6662;DHT22;3367;48.714;8.994;2022-11-20T07:12:32;4.60;69.70
6662;DHT22;3367;48.714;8.994;2022-11-20T07:15:01;4.60;17.70
6662;DHT22;3367;48.714;8.994;2022-11-20T07:17:27;4.60;44.50
6662;DHT22;3367;48.714;8.994;2022-11-20T07:19:54;4.60;55.50
6662;DHT22;3367;48.714;8.994;2022-11-20T07:22:21;4.60;64.80
6662;DHT22;3367;48.714;8.994;2022-11-20T07:24:48;4.60;88.40
6662;DHT22;3367;48.714;8.994;2022-11-20T07:27:15;4.60;13.50
6662;DHT22;3367;48.714;8.994;2022-11-20T07:29:41;4.60;10.40
6662;DHT22;3367;48.714;8.994;2022-11-20T07:32:10;4.60;33.90
6662;DHT22;3367;48.714;8.994;2022-11-20T07:34:36;4.60;99.90
6662;DHT22;3367;48.714;8.994;2022-11-20T07:37:03;4.60;99.90
6662;DHT22;3367;48.714;8.994;2022-11-20T07:39:30;4.60;99.90
6662;DHT22;3367;48.714;8.994;2022-11-20T07:41:56;4.60;99.90
6662;DHT22;3367;48.714;8.994;2022-11-20T07:44:23;4.70;99.90
6662;DHT22;3367;48.714;8.994;2022-11-20T07:46:50;4.80;99.90
6662;DHT22;3367;48.714;8.994;2022-11-20T07:49:18;4.90;99.90
6662;DHT22;3367;48.714;8.994;2022-11-20T07:51:45;4.90;82.30
6662;DHT22;3367;48.714;8.994;2022-11-20T07:54:11;5.00;1.00
6662;DHT22;3367;48.714;8.994;2022-11-20T07:56:38;5.10;1.00
6662;DHT22;3367;48.714;8.994;2022-11-20T07:59:05;5.10;1.00
6662;DHT22;3367;48.714;8.994;2022-11-20T08:01:31;5.20;1.00
6662;DHT22;3367;48.714;8.994;2022-11-20T08:03:58;5.30;1.00
6662;DHT22;3367;48.714;8.994;2022-11-20T08:06:26;5.40;1.00
6662;DHT22;3367;48.714;8.994;2022-11-20T08:08:53;5.40;1.00
6662;DHT22;3367;48.714;8.994;2022-11-20T08:11:20;5.40;1.00
6662;DHT22;3367;48.714;8.994;2022-11-20T08:16:59;5.50;1.00
6662;DHT22;3367;48.714;8.994;2022-11-20T08:19:26;5.60;1.00
6662;DHT22;3367;48.714;8.994;2022-11-20T08:21:55;5.50;1.00
6662;DHT22;3367;48.714;8.994;2022-11-20T08:24:21;5.50;1.00
6662;DHT22;3367;48.714;8.994;2022-11-20T08:26:48;5.50;1.00
6662;DHT22;3367;48.714;8.994;2022-11-20T08:29:15;5.50;1.00
6662;DHT22;3367;48.714;8.994;2022-11-20T08:31:41;5.60;1.00
6662;DHT22;3367;48.714;8.994;2022-11-20T08:34:08;5.70;1.00
6662;DHT22;3367;48.714;8.994;2022-11-20T08:36:36;5.80;1.00
6662;DHT22;3367;48.714;8.994;2022-11-20T08:39:05;5.90;1.00
6662;DHT22;3367;48.714;8.994;2022-11-20T08:41:31;6.00;99.90
6662;DHT22;3367;48.714;8.994;2022-11-20T08:44:00;6.00;99.90
6662;DHT22;3367;48.714;8.994;2022-11-20T08:46:31;6.20;99.90
6662;DHT22;3367;48.714;8.994;2022-11-20T08:48:59;6.30;1.00
6662;DHT22;3367;48.714;8.994;2022-11-20T08:51:25;6.30;1.00
6662;DHT22;3367;48.714;8.994;2022-11-20T08:53:52;6.30;1.00
6662;DHT22;3367;48.714;8.994;2022-11-20T08:56:20;6.40;1.00
6662;DHT22;3367;48.714;8.994;2022-11-20T08:58:47;6.60;1.00
6662;DHT22;3367;48.714;8.994;2022-11-20T09:01:16;6.50;1.00
6662;DHT22;3367;48.714;8.994;2022-11-20T09:03:42;6.40;99.90
6662;DHT22;3367;48.714;8.994;2022-11-20T09:06:09;6.40;99.90
6662;DHT22;3367;48.714;8.994;2022-11-20T09:08:36;6.40;99.90
6662;DHT22;3367;48.714;8.994;2022-11-20T09:11:03;6.40;1.00
6662;DHT22;3367;48.714;8.994;2022-11-20T09:13:32;6.40;1.00
6662;DHT22;3367;48.714;8.994;2022-11-20T09:16:01;6.40;1.00
6662;DHT22;3367;48.714;8.994;2022-11-20T09:18:28;6.40;99.90
6662;DHT22;3367;48.714;8.994;2022-11-20T09:20:57;6.40;99.90
6662;DHT22;3367;48.714;8.994;2022-11-20T09:23:24;6.40;99.90
6662;DHT22;3367;48.714;8.994;2022-11-20T09:25:51;6.50;99.90
6662;DHT22;3367;48.714;8.994;2022-11-20T09:28:20;6.40;99.90
6662;DHT22;3367;48.714;8.994;2022-11-20T09:30:49;6.30;76.80
6662;DHT22;3367;48.714;8.994;2022-11-20T09:33:15;6.30;98.70
6662;DHT22;3367;48.714;8.994;2022-11-20T09:35:43;6.30;99.90
6662;DHT22;3367;48.714;8.994;2022-11-20T09:38:11;6.30;99.90
6662;DHT22;3367;48.714;8.994;2022-11-20T09:40:43;6.30;99.90
6662;DHT22;3367;48.714;8.994;2022-11-20T09:43:17;6.20;99.90
6662;DHT22;3367;48.714;8.994;2022-11-20T09:45:56;6.10;1.00
6662;DHT22;3367;48.714;8.994;2022-11-20T09:51:25;6.30;99.90
6662;DHT22;3367;48.714;8.994;2022-11-20T09:54:05;6.30;99.90
6662;DHT22;3367;48.714;8.994;2022-11-20T09:56:34;6.30;99.90
6662;DHT22;3367;48.714;8.994;2022-11-20T09:59:06;6.20;99.90
6662;DHT22;3367;48.714;8.994;2022-11-20T10:01:37;6.20;1.00
6662;DHT22;3367;48.714;8.994;2022-11-20T10:04:11;6.20;1.00
6662;DHT22;3367;48.714;8.994;2022-11-20T10:06:44;6.20;1.00
6662;DHT22;3367;48.714;8.994;2022-11-20T10:09:20;6.20;1.00
6662;DHT22;3367;48.714;8.994;2022-11-20T10:11:56;6.30;1.00
6662;DHT22;3367;48.714;8.994;2022-11-20T10:14:34;6.50;94.50
6662;DHT22;3367;48.714;8.994;2022-11-20T10:17:12;6.40;1.00
6662;DHT22;3367;48.714;8.994;2022-11-20T10:19:58;6.20;99.90
6662;DHT22;3367;48.714;8.994;2022-11-20T10:22:38;6.30;99.90
6662;DHT22;3367;48.714;8.994;2022-11-20T10:25:14;6.40;99.90
6662;DHT22;3367;48.714;8.994;2022-11-20T10:28:21;6.40;1.00
6662;DHT22;3367;48.714;8.994;2022-11-20T10:30:57;6.50;1.00
6662;DHT22;3367;48.714;8.994;2022-11-20T10:33:31;6.40;99.90
6662;DHT22;3367;48.714;8.994;2022-11-20T10:36:05;6.40;99.90
6662;DHT22;3367;48.714;8.994;2022-11-20T10:38:37;6.40;1.00
6662;DHT22;3367;48.714;8.994;2022-11-20T10:41:06;6.30;1.00
6662;DHT22;3367;48.714;8.994;2022-11-20T10:43:58;6.30;1.00
6662;DHT22;3367;48.714;8.994;2022-11-20T10:46:37;6.20;67.80
6662;DHT22;3367;48.714;8.994;2022-11-20T10:49:13;6.10;99.90
6662;DHT22;3367;48.714;8.994;2022-11-20T10:51:52;6.10;54.10
6662;DHT22;3367;48.714;8.994;2022-11-20T10:54:26;6.20;99.90
6662;DHT22;3367;48.714;8.994;2022-11-20T10:57:02;6.20;99.90
6662;DHT22;3367;48.714;8.994;2022-11-20T10:59:48;6.30;99.90
6662;DHT22;3367;48.714;8.994;2022-11-20T11:02:18;6.50;99.90
6662;DHT22;3367;48.714;8.994;2022-11-20T11:04:48;6.70;1.00
6662;DHT22;3367;48.714;8.994;2022-11-20T11:07:19;6.80;1.00
6662;DHT22;3367;48.714;8.994;2022-11-20T11:09:49;6.90;99.90
6662;DHT22;3367;48.714;8.994;2022-11-20T11:12:16;7.00;99.90
6662;DHT22;3367;48.714;8.994;2022-11-20T11:14:46;7.00;37.60
6662;DHT22;3367;48.714;8.994;2022-11-20T11:17:25;6.90;99.90
6662;DHT22;3367;48.714;8.994;2022-11-20T11:20:00;7.00;1.00
6662;DHT22;3367;48.714;8.994;2022-11-20T11:22:29;7.00;1.00
6662;DHT22;3367;48.714;8.994;2022-11-20T11:24:56;7.00;99.90
6662;DHT22;3367;48.714;8.994;2022-11-20T11:27:23;7.10;99.90
6662;DHT22;3367;48.714;8.994;2022-11-20T11:29:50;7.30;1.00
6662;DHT22;3367;48.714;8.994;2022-11-20T11:32:29;7.30;1.00
6662;DHT22;3367;48.714;8.994;2022-11-20T11:35:02;7.30;99.90
6662;DHT22;3367;48.714;8.994;2022-11-20T11:37:33;7.50;1.00
6662;DHT22;3367;48.714;8.994;2022-11-20T11:40:02;7.70;99.90
6662;DHT22;3367;48.714;8.994;2022-11-20T11:42:29;7.80;77.30
6662;DHT22;3367;48.714;8.994;2022-11-20T11:44:58;7.90;99.90
6662;DHT22;3367;48.714;8.994;2022-11-20T11:47:32;8.00;1.00
6662;DHT22;3367;48.714;8.994;2022-11-20T11:50:15;8.30;1.00
6662;DHT22;3367;48.714;8.994;2022-11-20T11:52:45;8.20;68.20
6662;DHT22;3367;48.714;8.994;2022-11-20T11:55:15;8.30;56.00
6662;DHT22;3367;48.714;8.994;2022-11-20T11:57:47;8.30;1.00
6662;DHT22;3367;48.714;8.994;2022-11-20T12:00:16;8.30;1.00
6662;DHT22;3367;48.714;8.994;2022-11-20T12:02:53;8.30;1.00
6662;DHT22;3367;48.714;8.994;2022-11-20T12:05:24;8.30;1.00
6662;DHT22;3367;48.714;8.994;2022-11-20T12:07:55;8.20;1.00
6662;DHT22;3367;48.714;8.994;2022-11-20T12:10:38;8.20;1.00
6662;DHT22;3367;48.714;8.994;2022-11-20T12:13:25;8.10;1.00
6662;DHT22;3367;48.714;8.994;2022-11-20T12:15:53;8.20;1.00
6662;DHT22;3367;48.714;8.994;2022-11-20T12:18:21;8.20;99.90
6662;DHT22;3367;48.714;8.994;2022-11-20T12:21:03;8.10;99.90
6662;DHT22;3367;48.714;8.994;2022-11-20T12:23:40;8.10;99.90
6662;DHT22;3367;48.714;8.994;2022-11-20T12:26:29;8.00;1.00
6662;DHT22;3367;48.714;8.994;2022-11-20T12:29:07;8.00;99.90
6662;DHT22;3367;48.714;8.994;2022-11-20T12:31:48;7.90;1.00
6662;DHT22;3367;48.714;8.994;2022-11-20T12:34:33;7.70;99.90
6662;DHT22;3367;48.714;8.994;2022-11-20T12:37:14;7.60;1.00
6662;DHT22;3367;48.714;8.994;2022-11-20T12:39:48;7.60;1.00
6662;DHT22;3367;48.714;8.994;2022-11-20T12:42:36;7.60;1.00
6662;DHT22;3367;48.714;8.994;2022-11-20T12:45:45;7.60;1.00
6662;DHT22;3367;48.714;8.994;2022-11-20T12:48:38;7.50;1.00
6662;DHT22;3367;48.714;8.994;2022-11-20T12:51:29;7.60;1.00
6662;DHT22;3367;48.714;8.994;2022-11-20T12:54:19;7.80;99.90
6662;DHT22;3367;48.714;8.994;2022-11-20T12:56:53;8.00;99.90
6662;DHT22;3367;48.714;8.994;2022-11-20T12:59:34;8.10;99.90
6662;DHT22;3367;48.714;8.994;2022-11-20T13:02:18;8.40;99.90
6662;DHT22;3367;48.714;8.994;2022-11-20T13:04:58;8.30;99.90
6662;DHT22;3367;48.714;8.994;2022-11-20T13:07:30;8.50;99.90
6662;DHT22;3367;48.714;8.994;2022-11-20T13:10:00;8.40;99.90
6662;DHT22;3367;48.714;8.994;2022-11-20T13:12:33;8.10;99.90
6662;DHT22;3367;48.714;8.994;2022-11-20T13:15:07;8.00;99.90
6662;DHT22;3367;48.714;8.994;2022-11-20T13:17:43;7.80;99.90
6662;DHT22;3367;48.714;8.994;2022-11-20T13:20:14;7.80;99.90
6662;DHT22;3367;48.714;8.994;2022-11-20T13:22:44;7.90;99.90
6662;DHT22;3367;48.714;8.994;2022-11-20T13:25:24;8.20;99.90
6662;DHT22;3367;48.714;8.994;2022-11-20T13:27:51;8.30;99.90
6662;DHT22;3367;48.714;8.994;2022-11-20T13:30:19;8.20;99.90
6662;DHT22;3367;48.714;8.994;2022-11-20T13:32:51;8.20;99.90
6662;DHT22;3367;48.714;8.994;2022-11-20T13:35:28;7.90;99.90
6662;DHT22;3367;48.714;8.994;2022-11-20T13:38:03;7.80;99.90
6662;DHT22;3367;48.714;8.994;2022-11-20T13:40:32;7.70;99.90
6662;DHT22;3367;48.714;8.994;2022-11-20T13:43:10;7.70;1.00
6662;DHT22;3367;48.714;8.994;2022-11-20T13:45:40;7.60;1.00
6662;DHT22;3367;48.714;8.994;2022-11-20T13:48:19;7.60;1.00
6662;DHT22;3367;48.714;8.994;2022-11-20T13:50:58;7.50;1.00
6662;DHT22;3367;48.714;8.994;2022-11-20T13:53:42;7.40;1.00
6662;DHT22;3367;48.714;8.994;2022-11-20T13:56:23;7.30;1.00
6662;DHT22;3367;48.714;8.994;2022-11-20T13:58:57;7.20;1.00
6662;DHT22;3367;48.714;8.994;2022-11-20T14:01:28;7.20;1.00
6662;DHT22;3367;48.714;8.994;2022-11-20T14:03:57;7.20;1.00
6662;DHT22;3367;48.714;8.994;2022-11-20T14:06:26;7.20;1.00
6662;DHT22;3367;48.714;8.994;2022-11-20T14:08:54;7.10;1.00
6662;DHT22;3367;48.714;8.994;2022-11-20T14:11:23;7.10;1.00
6662;DHT22;3367;48.714;8.994;2022-11-20T14:13:54;7.00;1.00
6662;DHT22;3367;48.714;8.994;2022-11-20T14:16:22;6.90;1.00
6662;DHT22;3367;48.714;8.994;2022-11-20T14:18:49;6.80;1.00
6662;DHT22;3367;48.714;8.994;2022-11-20T14:21:22;6.90;1.00
6662;DHT22;3367;48.714;8.994;2022-11-20T14:23:52;6.80;1.00
6662;DHT22;3367;48.714;8.994;2022-11-20T14:26:19;6.80;1.00
6662;DHT22;3367;48.714;8.994;2022-11-20T14:28:49;6.70;1.00
6662;DHT22;3367;48.714;8.994;2022-11-20T14:31:23;6.70;1.00
6662;DHT22;3367;48.714;8.994;2022-11-20T14:33:51;6.70;1.00
6662;DHT22;3367;48.714;8.994;2022-11-20T14:36:20;6.60;1.00
6662;DHT22;3367;48.714;8.994;2022-11-20T14:38:48;6.70;24.50
6662;DHT22;3367;48.714;8.994;2022-11-20T14:41:17;6.70;1.00
6662;DHT22;3367;48.714;8.994;2022-11-20T14:43:46;6.60;73.10
6662;DHT22;3367;48.714;8.994;2022-11-20T14:46:15;6.60;85.50
6662;DHT22;3367;48.714;8.994;2022-11-20T14:48:45;6.60;99.90
6662;DHT22;3367;48.714;8.994;2022-11-20T14:51:28;6.60;99.90
6662;DHT22;3367;48.714;8.994;2022-11-20T14:53:56;6.60;99.90
6662;DHT22;3367;48.714;8.994;2022-11-20T14:56:23;6.60;96.70
6662;DHT22;3367;48.714;8.994;2022-11-20T14:58:57;6.60;99.90
6662;DHT22;3367;48.714;8.994;2022-11-20T15:01:30;6.50;90.80
6662;DHT22;3367;48.714;8.994;2022-11-20T15:04:01;6.50;99.90
6662;DHT22;3367;48.714;8.994;2022-11-20T15:06:29;6.40;99.90
6662;DHT22;3367;48.714;8.994;2022-11-20T15:08:57;6.40;99.90
6662;DHT22;3367;48.714;8.994;2022-11-20T15:11:28;6.30;99.90
6662;DHT22;3367;48.714;8.994;2022-11-20T15:13:56;6.20;99.90
6662;DHT22;3367;48.714;8.994;2022-11-20T15:16:24;6.10;99.90
6662;DHT22;3367;48.714;8.994;2022-11-20T15:18:54;6.10;99.90
6662;DHT22;3367;48.714;8.994;2022-11-20T15:21:21;6.00;99.90
6662;DHT22;3367;48.714;8.994;2022-11-20T15:23:48;6.00;1.00
6662;DHT22;3367;48.714;8.994;2022-11-20T15:26:25;5.80;1.00
6662;DHT22;3367;48.714;8.994;2022-11-20T15:28:52;5.80;1.00
6662;DHT22;3367;48.714;8.994;2022-11-20T15:31:21;5.80;1.00
6662;DHT22;3367;48.714;8.994;2022-11-20T15:33:49;5.70;1.00
6662;DHT22;3367;48.714;8.994;2022-11-20T15:36:18;5.70;1.00
6662;DHT22;3367;48.714;8.994;2022-11-20T15:38:44;5.60;1.00
6662;DHT22;3367;48.714;8.994;2022-11-20T15:41:11;5.60;1.00
6662;DHT22;3367;48.714;8.994;2022-11-20T15:43:38;5.50;28.00
6662;DHT22;3367;48.714;8.994;2022-11-20T15:46:08;5.50;9.10
6662;DHT22;3367;48.714;8.994;2022-11-20T15:48:38;5.50;99.90
6662;DHT22;3367;48.714;8.994;2022-11-20T15:51:15;5.40;99.90
6662;DHT22;3367;48.714;8.994;2022-11-20T15:53:45;5.40;99.90
6662;DHT22;3367;48.714;8.994;2022-11-20T15:56:13;5.40;99.90
6662;DHT22;3367;48.714;8.994;2022-11-20T15:58:40;5.40;1.00
6662;DHT22;3367;48.714;8.994;2022-11-20T16:01:10;5.40;1.00
6662;DHT22;3367;48.714;8.994;2022-11-20T16:03:38;5.40;1.00
6662;DHT22;3367;48.714;8.994;2022-11-20T16:06:05;5.30;1.00
6662;DHT22;3367;48.714;8.994;2022-11-20T16:08:31;5.40;1.00
6662;DHT22;3367;48.714;8.994;2022-11-20T16:11:00;5.50;1.00
6662;DHT22;3367;48.714;8.994;2022-11-20T16:13:27;5.60;1.00
6662;DHT22;3367;48.714;8.994;2022-11-20T16:16:18;5.50;1.00
6662;DHT22;3367;48.714;8.994;2022-11-20T16:18:45;5.50;1.00
6662;DHT22;3367;48.714;8.994;2022-11-20T16:21:12;5.50;1.00
6662;DHT22;3367;48.714;8.994;2022-11-20T16:23:40;5.50;1.00
6662;DHT22;3367;48.714;8.994;2022-11-20T16:26:13;5.50;1.00
6662;DHT22;3367;48.714;8.994;2022-11-20T16:28:41;5.60;1.00
6662;DHT22;3367;48.714;8.994;2022-11-20T16:31:09;5.50;1.00
6662;DHT22;3367;48.714;8.994;2022-11-20T16:33:36;5.60;1.00
6662;DHT22;3367;48.714;8.994;2022-11-20T16:36:07;5.50;1.00
6662;DHT22;3367;48.714;8.994;2022-11-20T16:38:34;5.50;1.00
6662;DHT22;3367;48.714;8.994;2022-11-20T16:41:01;5.50;1.00
6662;DHT22;3367;48.714;8.994;2022-11-20T16:43:30;5.50;1.00
6662;DHT22;3367;48.714;8.994;2022-11-20T16:45:57;5.50;1.00
6662;DHT22;3367;48.714;8.994;2022-11-20T16:48:24;5.50;1.00
6662;DHT22;3367;48.714;8.994;2022-11-20T16:50:52;5.60;1.00